Time;durP1;ratioP1;P1;durP2;ratioP2;P2;SDS_P1;SDS_P2;PMS_P1;PMS_P2;Temp;Humidity;BMP_temperature;BMP_pressure;BME280_temperature;BME280_humidity;BME280_pressure;Samples;Min_cycle;Max_cycle;Signal;HPM_P1;HPM_P2
2024/04/08 00:00:17;;;;;;;;;;;14.20;99.90;;;;;;5053575;28;19908;-78
2024/04/08 00:02:43;;;;;;;;;;;14.10;99.90;;;;;;5054246;28;20309;-79
2024/04/08 00:05:09;;;;;;;;;;;14.20;99.90;;;;;;5054094;28;19905;-78
2024/04/08 00:07:35;;;;;;;;;;;14.10;99.90;;;;;;5054017;28;19905;-78
2024/04/08 00:10:01;;;;;;;;;;;13.80;99.90;;;;;;5054134;28;19927;-72
2024/04/08 00:12:27;;;;;;;;;;;13.60;99.90;;;;;;5053902;28;19909;-72
2024/04/08 00:14:53;;;;;;;;;;;13.40;99.90;;;;;;5054301;28;19908;-72
2024/04/08 00:17:19;;;;;;;;;;;13.30;99.90;;;;;;5053148;28;19919;-72
2024/04/08 00:19:45;;;;;;;;;;;13.30;99.90;;;;;;5054336;28;19911;-72
2024/04/08 00:22:12;;;;;;;;;;;13.20;99.90;;;;;;5053149;28;19973;-72
2024/04/08 00:24:38;;;;;;;;;;;13.20;99.90;;;;;;5042110;28;19905;-72
2024/04/08 00:27:04;;;;;;;;;;;13.20;99.90;;;;;;5033789;28;19916;-71
2024/04/08 00:29:30;;;;;;;;;;;13.20;99.90;;;;;;5034098;28;19909;-71
2024/04/08 00:31:55;;;;;;;;;;;13.20;99.90;;;;;;5047661;28;19919;-71
2024/04/08 00:34:21;;;;;;;;;;;13.10;99.90;;;;;;5054099;28;19974;-71
2024/04/08 00:36:47;;;;;;;;;;;13.00;99.90;;;;;;5046849;28;19909;-71
2024/04/08 00:39:13;;;;;;;;;;;12.90;99.90;;;;;;5052697;28;19905;-71
2024/04/08 00:41:39;;;;;;;;;;;12.90;99.90;;;;;;5053021;28;19917;-71
2024/04/08 00:44:05;;;;;;;;;;;12.90;99.90;;;;;;5053814;28;19905;-71
2024/04/08 00:46:31;;;;;;;;;;;12.90;99.90;;;;;;5052753;28;19913;-72
2024/04/08 00:48:57;;;;;;;;;;;12.90;99.90;;;;;;5053669;28;19905;-72
2024/04/08 00:51:23;;;;;;;;;;;13.10;99.90;;;;;;5052907;28;19909;-71
2024/04/08 00:53:51;;;;;;;;;;;13.20;99.90;;;;;;5051936;28;19905;-72
2024/04/08 00:56:17;;;;;;;;;;;13.10;99.90;;;;;;5052740;28;19931;-72
2024/04/08 00:58:43;;;;;;;;;;;13.20;99.90;;;;;;5052508;28;19909;-72
2024/04/08 01:01:10;;;;;;;;;;;13.20;99.90;;;;;;5052557;28;19912;-72
2024/04/08 01:03:36;;;;;;;;;;;13.20;99.90;;;;;;5053186;28;19904;-72
2024/04/08 01:06:02;;;;;;;;;;;13.20;99.90;;;;;;5052425;28;19915;-71
2024/04/08 01:08:28;;;;;;;;;;;13.00;99.90;;;;;;5053422;28;19927;-72
2024/04/08 01:10:55;;;;;;;;;;;13.10;99.90;;;;;;5052853;28;19919;-77
2024/04/08 01:13:21;;;;;;;;;;;13.20;99.90;;;;;;5051823;28;19908;-77
2024/04/08 01:15:47;;;;;;;;;;;13.20;99.90;;;;;;5050756;28;19920;-77
2024/04/08 01:18:12;;;;;;;;;;;13.10;99.90;;;;;;5053194;28;19909;-78
2024/04/08 01:20:38;;;;;;;;;;;12.90;99.90;;;;;;5052213;28;19908;-77
2024/04/08 01:23:04;;;;;;;;;;;13.00;99.90;;;;;;5052958;28;19916;-77
2024/04/08 01:25:30;;;;;;;;;;;13.20;99.90;;;;;;5033802;28;19920;-78
2024/04/08 01:27:56;;;;;;;;;;;13.10;99.90;;;;;;5032923;28;19928;-77
2024/04/08 01:30:22;;;;;;;;;;;13.20;99.90;;;;;;5033951;28;20305;-77
2024/04/08 01:32:48;;;;;;;;;;;13.20;99.90;;;;;;5052115;28;19955;-78
2024/04/08 01:35:14;;;;;;;;;;;13.10;99.90;;;;;;5050667;28;19904;-77
2024/04/08 01:37:40;;;;;;;;;;;13.10;99.90;;;;;;5052742;28;19912;-77
2024/04/08 01:40:06;;;;;;;;;;;13.10;99.90;;;;;;5052676;28;19912;-78
2024/04/08 01:42:32;;;;;;;;;;;13.00;99.90;;;;;;5052352;28;19923;-77
2024/04/08 01:44:58;;;;;;;;;;;12.90;99.90;;;;;;5052616;28;19905;-77
2024/04/08 01:47:24;;;;;;;;;;;12.80;99.90;;;;;;5051803;28;19913;-77
2024/04/08 01:49:50;;;;;;;;;;;12.70;99.90;;;;;;5052467;28;20511;-77
2024/04/08 01:52:16;;;;;;;;;;;12.60;99.90;;;;;;5052075;28;19912;-77
2024/04/08 01:54:42;;;;;;;;;;;12.60;99.90;;;;;;5052622;28;19905;-77
2024/04/08 01:57:07;;;;;;;;;;;12.60;99.90;;;;;;5052212;28;20242;-77
2024/04/08 01:59:33;;;;;;;;;;;12.60;99.90;;;;;;5052542;28;19905;-78
2024/04/08 02:01:59;;;;;;;;;;;12.60;99.90;;;;;;5050714;28;19921;-77
2024/04/08 02:04:25;;;;;;;;;;;12.60;99.90;;;;;;5029750;28;19906;-77
2024/04/08 02:06:51;;;;;;;;;;;12.50;99.90;;;;;;5030709;28;19913;-78
2024/04/08 02:09:17;;;;;;;;;;;12.60;99.90;;;;;;5035473;28;19909;-78
2024/04/08 02:11:43;;;;;;;;;;;12.50;99.90;;;;;;5047772;28;19923;-77
2024/04/08 02:14:09;;;;;;;;;;;12.60;99.90;;;;;;5055313;28;20368;-77
2024/04/08 02:16:35;;;;;;;;;;;12.50;99.90;;;;;;5047043;28;19920;-78
2024/04/08 02:19:01;;;;;;;;;;;12.60;99.90;;;;;;5054927;28;19920;-78
2024/04/08 02:21:26;;;;;;;;;;;12.60;99.90;;;;;;5036457;28;20387;-77
2024/04/08 02:23:52;;;;;;;;;;;12.60;99.90;;;;;;5046384;28;19912;-78
2024/04/08 02:26:18;;;;;;;;;;;12.70;99.90;;;;;;5034552;28;19909;-77
2024/04/08 02:28:44;;;;;;;;;;;12.70;99.90;;;;;;5034918;28;19912;-77
2024/04/08 02:31:11;;;;;;;;;;;12.70;99.90;;;;;;5042878;28;20269;-77
2024/04/08 02:33:37;;;;;;;;;;;12.70;99.90;;;;;;5054602;28;20281;-77
2024/04/08 02:36:04;;;;;;;;;;;12.70;99.90;;;;;;5048122;28;19905;-77
2024/04/08 02:38:30;;;;;;;;;;;12.70;99.90;;;;;;5036140;28;19913;-78
2024/04/08 02:40:56;;;;;;;;;;;12.70;99.90;;;;;;5041528;28;19916;-72
2024/04/08 02:43:22;;;;;;;;;;;12.60;99.90;;;;;;5055395;28;20266;-71
2024/04/08 02:45:48;;;;;;;;;;;12.50;99.90;;;;;;5055119;28;19909;-72
2024/04/08 02:48:15;;;;;;;;;;;12.50;99.90;;;;;;5055457;28;20011;-72
2024/04/08 02:50:41;;;;;;;;;;;12.50;99.90;;;;;;5054870;28;20281;-72
2024/04/08 02:53:08;;;;;;;;;;;12.40;99.90;;;;;;5055854;28;19924;-72
2024/04/08 02:55:34;;;;;;;;;;;12.40;99.90;;;;;;5054127;28;20280;-72
2024/04/08 02:57:59;;;;;;;;;;;12.40;99.90;;;;;;5055763;28;19909;-72
2024/04/08 03:00:25;;;;;;;;;;;12.30;99.90;;;;;;5054890;28;19909;-71
2024/04/08 03:02:51;;;;;;;;;;;12.30;99.90;;;;;;5055276;28;19982;-71
2024/04/08 03:05:17;;;;;;;;;;;12.30;99.90;;;;;;5055055;28;19904;-71
2024/04/08 03:07:43;;;;;;;;;;;12.30;99.90;;;;;;5055551;28;19909;-72
2024/04/08 03:10:09;;;;;;;;;;;12.20;99.90;;;;;;5054346;28;19908;-72
2024/04/08 03:12:35;;;;;;;;;;;12.30;99.90;;;;;;5055549;28;19909;-72
2024/04/08 03:15:02;;;;;;;;;;;12.30;99.90;;;;;;5055539;28;19909;-72
2024/04/08 03:17:28;;;;;;;;;;;12.30;99.90;;;;;;5052564;28;19916;-71
2024/04/08 03:19:55;;;;;;;;;;;12.30;99.90;;;;;;5055413;28;19916;-71
2024/04/08 03:22:21;;;;;;;;;;;12.30;99.90;;;;;;5054456;28;19920;-71
2024/04/08 03:24:47;;;;;;;;;;;12.30;99.90;;;;;;5042527;28;19905;-72
2024/04/08 03:27:13;;;;;;;;;;;12.40;99.90;;;;;;5034855;28;19916;-71
2024/04/08 03:29:39;;;;;;;;;;;12.30;99.90;;;;;;5035252;28;20298;-71
2024/04/08 03:32:05;;;;;;;;;;;12.20;99.90;;;;;;5049985;28;19908;-71
2024/04/08 03:34:35;;;;;;;;;;;12.20;99.90;;;;;;5055069;28;19913;-72
2024/04/08 03:37:02;;;;;;;;;;;12.10;99.90;;;;;;5054541;28;19916;-71
2024/04/08 03:39:28;;;;;;;;;;;12.10;99.90;;;;;;5054985;28;19911;-71
2024/04/08 03:41:56;;;;;;;;;;;12.10;99.90;;;;;;5053922;28;20356;-72
2024/04/08 03:44:22;;;;;;;;;;;12.00;99.90;;;;;;5053792;28;19923;-79
2024/04/08 03:46:48;;;;;;;;;;;12.10;99.90;;;;;;5053423;28;19913;-78
2024/04/08 03:49:14;;;;;;;;;;;12.00;99.90;;;;;;5054926;28;19911;-78
2024/04/08 03:51:40;;;;;;;;;;;11.90;99.90;;;;;;5054353;28;19912;-78
2024/04/08 03:54:06;;;;;;;;;;;11.90;99.90;;;;;;5054768;28;19909;-78
2024/04/08 03:56:32;;;;;;;;;;;12.00;99.90;;;;;;5054130;28;19916;-76
2024/04/08 03:58:58;;;;;;;;;;;12.10;99.90;;;;;;5054674;28;19912;-78
2024/04/08 04:01:25;;;;;;;;;;;12.00;99.90;;;;;;5052124;28;19913;-78
2024/04/08 04:03:51;;;;;;;;;;;12.00;99.90;;;;;;5054557;28;19932;-78
2024/04/08 04:06:17;;;;;;;;;;;11.90;99.90;;;;;;5053916;28;20320;-78
2024/04/08 04:08:42;;;;;;;;;;;11.80;99.90;;;;;;5054540;28;19905;-78
2024/04/08 04:11:10;;;;;;;;;;;11.80;99.90;;;;;;5053809;28;19908;-78
2024/04/08 04:13:36;;;;;;;;;;;11.80;99.90;;;;;;5054094;28;19911;-78
2024/04/08 04:16:02;;;;;;;;;;;11.80;99.90;;;;;;5053239;28;19913;-78
2024/04/08 04:18:28;;;;;;;;;;;11.70;99.90;;;;;;5054356;28;19911;-78
2024/04/08 04:20:54;;;;;;;;;;;11.70;99.90;;;;;;5053563;28;20430;-78
2024/04/08 04:23:22;;;;;;;;;;;11.60;99.90;;;;;;5053103;28;19916;-79
2024/04/08 04:25:52;;;;;;;;;;;11.70;99.90;;;;;;5037685;28;20353;-78
2024/04/08 04:28:18;;;;;;;;;;;11.60;99.90;;;;;;5053792;28;19912;-78
2024/04/08 04:30:54;;;;;;;;;;;11.70;99.90;;;;;;5052401;28;20285;-78
2024/04/08 04:33:20;;;;;;;;;;;11.90;99.90;;;;;;5053941;28;19905;-78
2024/04/08 04:35:52;;;;;;;;;;;11.90;99.90;;;;;;5047288;28;20369;-79
2024/04/08 04:38:18;;;;;;;;;;;11.90;99.90;;;;;;5053821;28;19953;-79
2024/04/08 04:40:44;;;;;;;;;;;11.90;99.90;;;;;;5053399;28;20349;-78
2024/04/08 04:43:10;;;;;;;;;;;11.90;99.90;;;;;;5052288;28;19912;-78
2024/04/08 04:45:36;;;;;;;;;;;11.80;99.90;;;;;;5051476;28;19931;-79
2024/04/08 04:48:02;;;;;;;;;;;11.70;99.90;;;;;;5052333;28;20301;-78
2024/04/08 04:50:30;;;;;;;;;;;11.70;99.90;;;;;;5053123;28;19911;-79
2024/04/08 04:52:55;;;;;;;;;;;11.70;99.90;;;;;;5052750;28;20362;-79
2024/04/08 04:55:21;;;;;;;;;;;11.70;99.90;;;;;;5053077;28;19923;-71
2024/04/08 04:57:47;;;;;;;;;;;11.70;99.90;;;;;;5053256;28;19916;-71
2024/04/08 05:00:13;;;;;;;;;;;11.70;99.90;;;;;;5052649;28;20265;-72
2024/04/08 05:02:39;;;;;;;;;;;11.70;99.90;;;;;;5053304;28;19913;-72
2024/04/08 05:05:05;;;;;;;;;;;11.80;99.90;;;;;;5053305;28;19904;-72
2024/04/08 05:07:31;;;;;;;;;;;11.80;99.90;;;;;;5052994;28;19912;-72
2024/04/08 05:09:57;;;;;;;;;;;11.80;99.90;;;;;;5053335;28;19911;-71
2024/04/08 05:12:23;;;;;;;;;;;11.70;99.90;;;;;;5052291;28;19905;-71
2024/04/08 05:14:49;;;;;;;;;;;11.80;99.90;;;;;;5053285;28;19904;-72
2024/04/08 05:17:15;;;;;;;;;;;11.80;99.90;;;;;;5052137;28;19920;-71
2024/04/08 05:19:41;;;;;;;;;;;11.70;99.90;;;;;;5052855;28;19916;-71
2024/04/08 05:22:16;;;;;;;;;;;11.70;99.90;;;;;;5052482;28;19924;-72
2024/04/08 05:24:42;;;;;;;;;;;11.80;99.90;;;;;;5040645;28;19932;-71
2024/04/08 05:27:08;;;;;;;;;;;11.70;99.90;;;;;;5032637;28;20388;-72
2024/04/08 05:29:34;;;;;;;;;;;11.70;99.90;;;;;;5033029;28;19905;-72
2024/04/08 05:32:00;;;;;;;;;;;11.70;99.90;;;;;;5047361;28;19937;-72
2024/04/08 05:34:26;;;;;;;;;;;11.70;99.90;;;;;;5052887;28;19911;-72
2024/04/08 05:36:51;;;;;;;;;;;11.70;99.90;;;;;;5046062;28;19995;-72
2024/04/08 05:39:17;;;;;;;;;;;11.70;99.90;;;;;;5052878;28;19905;-72
2024/04/08 05:41:43;;;;;;;;;;;11.70;99.90;;;;;;5051576;28;20284;-72
2024/04/08 05:44:09;;;;;;;;;;;11.70;99.90;;;;;;5052808;28;19904;-72
2024/04/08 05:46:35;;;;;;;;;;;11.80;99.90;;;;;;5051722;28;19913;-72
2024/04/08 05:49:01;;;;;;;;;;;11.70;99.90;;;;;;5052980;28;19912;-72
2024/04/08 05:51:27;;;;;;;;;;;11.80;99.90;;;;;;5052308;28;19916;-72
2024/04/08 05:53:53;;;;;;;;;;;11.80;99.90;;;;;;5052699;28;19912;-72
2024/04/08 05:56:19;;;;;;;;;;;11.80;99.90;;;;;;5051722;28;19916;-72
2024/04/08 05:58:46;;;;;;;;;;;11.80;99.90;;;;;;5051780;28;20289;-79
2024/04/08 06:01:12;;;;;;;;;;;11.90;99.90;;;;;;5050557;28;19916;-79
2024/04/08 06:03:38;;;;;;;;;;;11.80;99.90;;;;;;5052363;28;19916;-78
2024/04/08 06:06:06;;;;;;;;;;;11.90;99.90;;;;;;5050734;28;19909;-78
2024/04/08 06:08:34;;;;;;;;;;;11.90;99.90;;;;;;5052588;28;20369;-77
2024/04/08 06:11:01;;;;;;;;;;;11.90;99.90;;;;;;5051816;28;19916;-78
2024/04/08 06:13:30;;;;;;;;;;;11.90;99.90;;;;;;5051314;28;20354;-79
2024/04/08 06:15:56;;;;;;;;;;;11.90;99.90;;;;;;5051409;28;19924;-79
2024/04/08 06:18:23;;;;;;;;;;;11.90;99.90;;;;;;5052569;28;19911;-79
2024/04/08 06:20:55;;;;;;;;;;;11.80;99.90;;;;;;5051765;28;19909;-79
2024/04/08 06:23:21;;;;;;;;;;;11.90;99.90;;;;;;5051120;28;19916;-78
2024/04/08 06:25:47;;;;;;;;;;;11.90;99.90;;;;;;5031802;28;20489;-79
2024/04/08 06:28:12;;;;;;;;;;;11.80;99.90;;;;;;5032172;28;19909;-79
2024/04/08 06:30:38;;;;;;;;;;;11.80;99.90;;;;;;5035209;28;19913;-79
2024/04/08 06:33:06;;;;;;;;;;;11.80;99.90;;;;;;5052218;28;20003;-78
2024/04/08 06:35:32;;;;;;;;;;;11.90;99.90;;;;;;5050362;28;19923;-79
2024/04/08 06:37:58;;;;;;;;;;;11.90;99.90;;;;;;5052072;28;19905;-78
2024/04/08 06:40:24;;;;;;;;;;;12.00;99.90;;;;;;5051580;28;19905;-79
2024/04/08 06:42:50;;;;;;;;;;;12.10;99.90;;;;;;5051999;28;19913;-79
2024/04/08 06:45:15;;;;;;;;;;;12.10;99.90;;;;;;5051261;28;19904;-78
2024/04/08 06:47:41;;;;;;;;;;;12.10;99.90;;;;;;5052108;28;19900;-79
2024/04/08 06:50:07;;;;;;;;;;;12.00;99.90;;;;;;5052082;28;20357;-78
2024/04/08 06:52:33;;;;;;;;;;;12.10;99.90;;;;;;5052321;28;19960;-78
2024/04/08 06:54:59;;;;;;;;;;;12.00;99.90;;;;;;5055458;28;19912;-79
2024/04/08 06:57:25;;;;;;;;;;;12.10;99.90;;;;;;5055099;28;19915;-78
2024/04/08 06:59:52;;;;;;;;;;;12.10;99.90;;;;;;5055753;28;19967;-78
2024/04/08 07:02:18;;;;;;;;;;;12.10;99.90;;;;;;5054744;28;20404;-72
2024/04/08 07:04:43;;;;;;;;;;;12.20;99.90;;;;;;5055568;28;19913;-72
2024/04/08 07:07:09;;;;;;;;;;;12.20;99.90;;;;;;5055219;28;19912;-72
2024/04/08 07:09:35;;;;;;;;;;;12.20;99.90;;;;;;5055287;28;19909;-71
2024/04/08 07:12:02;;;;;;;;;;;12.20;99.90;;;;;;5054897;28;19912;-72
2024/04/08 07:14:28;;;;;;;;;;;12.20;99.90;;;;;;5055230;28;19912;-72
2024/04/08 07:16:54;;;;;;;;;;;12.20;99.90;;;;;;5053212;28;19912;-72
2024/04/08 07:19:21;;;;;;;;;;;12.30;99.90;;;;;;5055394;28;19905;-72
2024/04/08 07:21:48;;;;;;;;;;;12.30;99.90;;;;;;5054391;28;19920;-72
2024/04/08 07:24:13;;;;;;;;;;;12.30;99.90;;;;;;5045823;28;19913;-72
2024/04/08 07:26:39;;;;;;;;;;;12.30;99.90;;;;;;5034995;28;19916;-71
2024/04/08 07:29:05;;;;;;;;;;;12.50;99.90;;;;;;5035324;28;19905;-72
2024/04/08 07:31:31;;;;;;;;;;;12.50;99.90;;;;;;5046267;28;20369;-71
2024/04/08 07:33:57;;;;;;;;;;;12.50;99.90;;;;;;5054668;28;20350;-72
2024/04/08 07:36:23;;;;;;;;;;;12.50;99.90;;;;;;5054369;28;19908;-72
2024/04/08 07:38:49;;;;;;;;;;;12.50;99.90;;;;;;5054763;28;19912;-72
2024/04/08 07:41:15;;;;;;;;;;;12.50;99.90;;;;;;5054375;28;19915;-71
2024/04/08 07:43:41;;;;;;;;;;;12.60;99.90;;;;;;5055025;28;20290;-71
2024/04/08 07:46:07;;;;;;;;;;;12.70;99.90;;;;;;5053241;28;19935;-72
2024/04/08 07:48:33;;;;;;;;;;;12.70;99.90;;;;;;5054989;28;19908;-72
2024/04/08 07:50:59;;;;;;;;;;;12.80;99.90;;;;;;5054526;28;20277;-72
2024/04/08 07:53:26;;;;;;;;;;;12.90;99.90;;;;;;5054143;28;19948;-72
2024/04/08 07:55:52;;;;;;;;;;;12.90;99.90;;;;;;5053483;28;19905;-71
2024/04/08 07:58:18;;;;;;;;;;;13.00;99.90;;;;;;5054849;28;20019;-72
2024/04/08 08:00:54;;;;;;;;;;;13.00;99.90;;;;;;5053781;28;19909;-72
2024/04/08 08:03:20;;;;;;;;;;;12.90;99.90;;;;;;5054129;28;20365;-79
2024/04/08 08:05:46;;;;;;;;;;;13.00;99.90;;;;;;5052381;28;19915;-78
2024/04/08 08:08:12;;;;;;;;;;;13.10;99.90;;;;;;5054413;28;19912;-79
2024/04/08 08:10:38;;;;;;;;;;;13.10;99.90;;;;;;5053700;28;19909;-79
2024/04/08 08:13:04;;;;;;;;;;;13.10;99.90;;;;;;5054247;28;19909;-78
2024/04/08 08:15:30;;;;;;;;;;;13.20;99.90;;;;;;5053218;28;19916;-78
2024/04/08 08:17:56;;;;;;;;;;;13.20;99.90;;;;;;5054067;28;19909;-78
2024/04/08 08:20:22;;;;;;;;;;;13.30;99.90;;;;;;5053340;28;20401;-79
2024/04/08 08:22:48;;;;;;;;;;;13.30;99.90;;;;;;5053854;28;19920;-79
2024/04/08 08:25:14;;;;;;;;;;;13.40;99.90;;;;;;5037356;28;20281;-79
2024/04/08 08:27:40;;;;;;;;;;;13.40;99.90;;;;;;5034047;28;19905;-79
2024/04/08 08:30:06;;;;;;;;;;;13.50;99.90;;;;;;5033873;28;19959;-79
2024/04/08 08:32:32;;;;;;;;;;;13.50;99.90;;;;;;5053579;28;19920;-79
2024/04/08 08:34:58;;;;;;;;;;;13.50;99.90;;;;;;5053359;28;19936;-79
2024/04/08 08:37:24;;;;;;;;;;;13.60;99.90;;;;;;5053220;28;19912;-79
2024/04/08 08:39:50;;;;;;;;;;;13.80;99.90;;;;;;5053925;28;19915;-79
2024/04/08 08:42:19;;;;;;;;;;;13.90;99.90;;;;;;5053182;28;19927;-79
2024/04/08 08:44:54;;;;;;;;;;;14.00;99.90;;;;;;5052773;28;19924;-79
2024/04/08 08:47:21;;;;;;;;;;;14.10;99.90;;;;;;5052599;28;19912;-79
2024/04/08 08:49:47;;;;;;;;;;;14.10;99.90;;;;;;5053700;28;19915;-79
2024/04/08 08:52:13;;;;;;;;;;;14.10;99.90;;;;;;5051833;28;20281;-78
2024/04/08 08:54:39;;;;;;;;;;;14.20;99.90;;;;;;5053365;28;19908;-79
2024/04/08 08:57:05;;;;;;;;;;;14.20;99.90;;;;;;5052976;28;19909;-79
2024/04/08 08:59:31;;;;;;;;;;;14.30;99.90;;;;;;5052186;28;19908;-79
2024/04/08 09:01:57;;;;;;;;;;;14.40;99.90;;;;;;5052429;28;19912;-78
2024/04/08 09:04:24;;;;;;;;;;;14.60;99.90;;;;;;5051659;28;19917;-79
2024/04/08 09:06:51;;;;;;;;;;;14.70;99.90;;;;;;5052939;28;19905;-79
2024/04/08 09:09:17;;;;;;;;;;;14.80;99.90;;;;;;5053276;28;19916;-79
2024/04/08 09:11:48;;;;;;;;;;;14.90;99.90;;;;;;5052859;28;19909;-79
2024/04/08 09:14:14;;;;;;;;;;;15.10;99.90;;;;;;5052989;28;19920;-79
2024/04/08 09:16:42;;;;;;;;;;;15.40;99.90;;;;;;5051487;28;20285;-79
2024/04/08 09:19:08;;;;;;;;;;;15.40;99.90;;;;;;5052698;28;19916;-79
2024/04/08 09:21:34;;;;;;;;;;;15.60;99.90;;;;;;5050858;28;20296;-72
2024/04/08 09:24:01;;;;;;;;;;;15.60;99.90;;;;;;5046099;28;19924;-72
2024/04/08 09:28:20;;;;;;;;;;;15.60;99.90;;;;;;5582792;25;19934;-72
2024/04/08 09:30:46;;;;;;;;;;;15.70;99.90;;;;;;5548971;25;19928;-72
2024/04/08 09:33:13;;;;;;;;;;;15.70;99.90;;;;;;5471202;26;20391;-72
2024/04/08 09:35:39;;;;;;;;;;;15.80;99.90;;;;;;5481382;26;19953;-72
2024/04/08 09:38:07;;;;;;;;;;;16.00;99.90;;;;;;5468704;26;19956;-72
2024/04/08 09:40:33;;;;;;;;;;;16.10;99.90;;;;;;5470673;26;19956;-71
2024/04/08 09:42:59;;;;;;;;;;;16.30;99.90;;;;;;5469643;26;19944;-71
2024/04/08 09:45:24;;;;;;;;;;;16.40;99.90;;;;;;5470444;26;20296;-72
2024/04/08 09:47:51;;;;;;;;;;;16.60;99.90;;;;;;5470898;26;19939;-72
2024/04/08 09:50:17;;;;;;;;;;;16.80;99.90;;;;;;5468499;26;19956;-72
2024/04/08 09:52:43;;;;;;;;;;;17.10;99.90;;;;;;5469115;26;20380;-72
2024/04/08 09:55:09;;;;;;;;;;;17.30;99.90;;;;;;5470920;26;19958;-72
2024/04/08 09:57:39;;;;;;;;;;;17.50;99.90;;;;;;5471039;26;19964;-73
2024/04/08 10:00:06;;;;;;;;;;;17.70;99.90;;;;;;5470589;26;19952;-72
2024/04/08 10:02:37;;;;;;;;;;;17.80;99.90;;;;;;5467924;26;19956;-71
2024/04/08 10:05:03;;;;;;;;;;;17.80;99.90;;;;;;5471024;26;20003;-72
2024/04/08 10:07:30;;;;;;;;;;;17.80;99.90;;;;;;5470380;26;19956;-73
2024/04/08 10:09:56;;;;;;;;;;;17.90;99.90;;;;;;5469000;26;19957;-72
2024/04/08 10:12:30;;;;;;;;;;;18.10;99.90;;;;;;5468286;26;19956;-72
2024/04/08 10:14:55;;;;;;;;;;;18.20;99.90;;;;;;5470830;26;19956;-72
2024/04/08 10:17:21;;;;;;;;;;;18.50;99.90;;;;;;5469522;26;20293;-72
2024/04/08 10:19:47;;;;;;;;;;;18.70;99.90;;;;;;5471097;26;19936;-72
2024/04/08 10:22:15;;;;;;;;;;;18.90;99.90;;;;;;5470471;26;19932;-72
2024/04/08 10:24:41;;;;;;;;;;;19.10;99.90;;;;;;5470695;26;19957;-79
2024/04/08 10:27:08;;;;;;;;;;;19.10;99.90;;;;;;5495435;26;20402;-78
2024/04/08 10:29:35;;;;;;;;;;;19.10;99.90;;;;;;5469927;26;19956;-78
2024/04/08 10:32:02;;;;;;;;;;;19.20;99.90;;;;;;5468982;26;19957;-78
2024/04/08 10:34:28;;;;;;;;;;;19.20;99.90;;;;;;5470945;26;20658;-78
2024/04/08 10:36:55;;;;;;;;;;;19.20;99.90;;;;;;5494622;26;19960;-78
2024/04/08 10:39:26;;;;;;;;;;;19.30;99.90;;;;;;5490934;25;19971;-78
2024/04/08 10:41:54;;;;;;;;;;;19.30;99.90;;;;;;5464829;26;19968;-75
2024/04/08 10:44:20;;;;;;;;;;;19.20;99.90;;;;;;5454153;26;20453;-78
2024/04/08 10:46:46;;;;;;;;;;;19.20;99.90;;;;;;5453219;26;19936;-78
2024/04/08 10:49:12;;;;;;;;;;;19.20;99.90;;;;;;5454841;26;19936;-78
2024/04/08 10:51:38;;;;;;;;;;;19.20;99.90;;;;;;5454460;26;20329;-78
2024/04/08 10:54:04;;;;;;;;;;;19.30;99.90;;;;;;5451755;26;19933;-77
2024/04/08 10:56:29;;;;;;;;;;;19.40;99.90;;;;;;5454114;26;19935;-78
2024/04/08 10:58:55;;;;;;;;;;;19.40;99.90;;;;;;5452871;26;20059;-78
2024/04/08 11:01:22;;;;;;;;;;;19.50;99.90;;;;;;5453232;26;19936;-77
2024/04/08 11:03:48;;;;;;;;;;;19.60;99.90;;;;;;5454590;26;19957;-78
2024/04/08 11:06:14;;;;;;;;;;;19.70;99.90;;;;;;5453807;26;20237;-78
2024/04/08 11:08:40;;;;;;;;;;;19.80;99.90;;;;;;5454618;26;19984;-78
2024/04/08 11:11:06;;;;;;;;;;;19.80;99.90;;;;;;5451920;26;19968;-78
2024/04/08 11:13:32;;;;;;;;;;;19.90;99.90;;;;;;5451902;26;19936;-78
2024/04/08 11:15:58;;;;;;;;;;;19.90;99.90;;;;;;5453043;26;20281;-78
2024/04/08 11:18:24;;;;;;;;;;;19.80;99.90;;;;;;5454399;26;19956;-78
2024/04/08 11:20:50;;;;;;;;;;;19.80;99.90;;;;;;5454063;26;20262;-77
2024/04/08 11:23:19;;;;;;;;;;;19.80;99.90;;;;;;5451966;26;19957;-78
2024/04/08 11:25:45;;;;;;;;;;;19.90;99.90;;;;;;5480860;26;19956;-78
2024/04/08 11:28:11;;;;;;;;;;;20.00;99.90;;;;;;5453250;26;19956;-78
2024/04/08 11:30:38;;;;;;;;;;;20.00;99.90;;;;;;5453118;26;20374;-78
2024/04/08 11:33:04;;;;;;;;;;;20.10;99.90;;;;;;5454451;26;20029;-78
2024/04/08 11:35:30;;;;;;;;;;;20.30;99.90;;;;;;5453514;26;20385;-78
2024/04/08 11:37:56;;;;;;;;;;;20.30;99.90;;;;;;5453791;26;19960;-71
2024/04/08 11:40:22;;;;;;;;;;;20.40;99.90;;;;;;5453932;26;19933;-72
2024/04/08 11:42:48;;;;;;;;;;;20.40;99.90;;;;;;5454168;26;19932;-73
2024/04/08 11:45:14;;;;;;;;;;;20.50;99.90;;;;;;5452699;26;19953;-72
2024/04/08 11:47:40;;;;;;;;;;;20.50;99.90;;;;;;5454181;26;19932;-72
2024/04/08 11:50:07;;;;;;;;;;;20.40;99.90;;;;;;5453853;26;19932;-72
2024/04/08 11:52:33;;;;;;;;;;;20.30;99.90;;;;;;5453979;26;19957;-72
2024/04/08 11:54:59;;;;;;;;;;;20.30;99.90;;;;;;5451355;26;20304;-72
2024/04/08 11:57:25;;;;;;;;;;;20.40;99.90;;;;;;5453583;26;19956;-72
2024/04/08 11:59:51;;;;;;;;;;;20.50;99.90;;;;;;5453556;26;19957;-72
2024/04/08 12:02:17;;;;;;;;;;;20.70;99.90;;;;;;5452966;26;19935;-72
2024/04/08 12:04:46;;;;;;;;;;;20.80;99.90;;;;;;5453900;26;19939;-72
2024/04/08 12:07:12;;;;;;;;;;;20.80;99.90;;;;;;5453119;26;19965;-72
2024/04/08 12:09:41;;;;;;;;;;;20.90;99.90;;;;;;5453852;26;19952;-72
2024/04/08 12:12:11;;;;;;;;;;;20.90;99.90;;;;;;5452875;26;19957;-72
2024/04/08 12:14:37;;;;;;;;;;;20.80;99.90;;;;;;5453833;26;19977;-72
2024/04/08 12:17:03;;;;;;;;;;;20.90;99.90;;;;;;5452657;26;19940;-72
2024/04/08 12:19:29;;;;;;;;;;;21.00;99.90;;;;;;5453869;26;19928;-72
2024/04/08 12:21:55;;;;;;;;;;;21.20;99.90;;;;;;5453245;26;19935;-72
2024/04/08 12:24:21;;;;;;;;;;;21.20;99.90;;;;;;5470257;26;19938;-72
2024/04/08 12:26:47;;;;;;;;;;;21.20;99.90;;;;;;5464240;26;19940;-72
2024/04/08 12:29:13;;;;;;;;;;;21.30;99.90;;;;;;5486442;26;19939;-71
2024/04/08 12:31:39;;;;;;;;;;;21.50;99.90;;;;;;5465664;25;20385;-72
2024/04/08 12:34:05;;;;;;;;;;;21.60;99.90;;;;;;5453474;26;19935;-72
2024/04/08 12:36:31;;;;;;;;;;;21.70;99.90;;;;;;5452825;26;19935;-73
2024/04/08 12:38:57;;;;;;;;;;;21.70;99.90;;;;;;5453330;26;19928;-77
2024/04/08 12:41:23;;;;;;;;;;;21.70;99.90;;;;;;5451868;26;19943;-79
2024/04/08 12:43:49;;;;;;;;;;;21.70;99.90;;;;;;5452840;26;19944;-79
2024/04/08 12:46:14;;;;;;;;;;;21.70;99.90;;;;;;5452242;26;19997;-78
2024/04/08 12:48:40;;;;;;;;;;;21.70;99.90;;;;;;5452735;26;20369;-78
2024/04/08 12:51:07;;;;;;;;;;;21.70;99.90;;;;;;5452642;26;19932;-78
2024/04/08 12:53:33;;;;;;;;;;;21.70;99.90;;;;;;5452834;26;19952;-78
2024/04/08 12:55:59;;;;;;;;;;;21.80;99.90;;;;;;5451795;26;19953;-79
2024/04/08 12:58:25;;;;;;;;;;;21.90;99.90;;;;;;5451344;26;20376;-78
2024/04/08 13:00:51;;;;;;;;;;;21.90;99.90;;;;;;5450976;26;19940;-78
2024/04/08 13:03:17;;;;;;;;;;;21.80;99.90;;;;;;5451078;26;19932;-78
2024/04/08 13:05:44;;;;;;;;;;;21.80;99.90;;;;;;5452426;26;19932;-78
2024/04/08 13:08:10;;;;;;;;;;;21.70;99.90;;;;;;5450133;26;19952;-78
2024/04/08 13:10:36;;;;;;;;;;;21.80;99.90;;;;;;5451899;26;20290;-77
2024/04/08 13:13:02;;;;;;;;;;;21.80;99.90;;;;;;5452727;26;19936;-79
2024/04/08 13:15:28;;;;;;;;;;;21.80;99.90;;;;;;5451713;26;19972;-78
2024/04/08 13:17:54;;;;;;;;;;;21.60;99.90;;;;;;5452417;26;20543;-78
2024/04/08 13:20:20;;;;;;;;;;;21.40;99.90;;;;;;5452262;26;19935;-78
2024/04/08 13:22:46;;;;;;;;;;;21.30;99.90;;;;;;5452315;26;19936;-77
2024/04/08 13:25:12;;;;;;;;;;;21.30;99.90;;;;;;5480588;26;19952;-78
2024/04/08 13:27:38;;;;;;;;;;;21.20;99.90;;;;;;5461951;26;19928;-78
2024/04/08 13:30:04;;;;;;;;;;;21.20;99.90;;;;;;5488083;25;20293;-77
2024/04/08 13:32:30;;;;;;;;;;;21.00;99.90;;;;;;5452926;26;19960;-78
2024/04/08 13:34:56;;;;;;;;;;;20.90;99.90;;;;;;5452095;26;19957;-78
2024/04/08 13:37:22;;;;;;;;;;;20.70;99.90;;;;;;5451649;26;19936;-78
2024/04/08 13:39:48;;;;;;;;;;;20.70;99.90;;;;;;5452000;26;20385;-78
2024/04/08 13:42:14;;;;;;;;;;;20.70;99.90;;;;;;5480807;26;19934;-78
2024/04/08 13:44:42;;;;;;;;;;;20.70;99.90;;;;;;5488156;26;19939;-78
2024/04/08 13:47:08;;;;;;;;;;;20.70;99.90;;;;;;5457362;25;19961;-78
2024/04/08 13:49:34;;;;;;;;;;;20.60;99.90;;;;;;5451852;26;19937;-78
2024/04/08 13:52:04;;;;;;;;;;;20.40;99.90;;;;;;5451677;26;19960;-78
2024/04/08 13:54:30;;;;;;;;;;;20.30;99.90;;;;;;5451541;26;19972;-78
2024/04/08 13:56:56;;;;;;;;;;;20.20;99.90;;;;;;5451326;26;19939;-79
2024/04/08 13:59:22;;;;;;;;;;;20.00;99.90;;;;;;5451690;26;19996;-78
2024/04/08 14:01:48;;;;;;;;;;;19.90;99.90;;;;;;5450803;26;19932;-78
2024/04/08 14:04:14;;;;;;;;;;;19.90;99.90;;;;;;5451788;26;19940;-78
2024/04/08 14:06:40;;;;;;;;;;;19.80;99.90;;;;;;5450269;26;19958;-79
2024/04/08 14:09:05;;;;;;;;;;;19.70;99.90;;;;;;5451198;26;19939;-79
2024/04/08 14:11:31;;;;;;;;;;;19.60;99.90;;;;;;5451486;26;19932;-78